createdAt,value
2018-08-16T00:00:23.970Z,73.10
2018-08-16T00:02:52.090Z,73.20
2018-08-16T00:05:20.211Z,73.30
2018-08-16T00:07:48.313Z,73.30
2018-08-16T00:10:17.469Z,73.40
2018-08-16T00:12:46.754Z,73.60
2018-08-16T00:15:16.029Z,73.70
2018-08-16T00:17:44.150Z,73.60
2018-08-16T00:20:12.611Z,73.70
2018-08-16T00:22:40.756Z,73.90
2018-08-16T00:25:09.630Z,73.90
2018-08-16T00:27:37.815Z,74.00
2018-08-16T00:30:08.880Z,74.10
2018-08-16T00:32:36.979Z,74.30
2018-08-16T00:35:05.209Z,74.20
2018-08-16T00:37:33.362Z,74.40
2018-08-16T00:40:01.487Z,74.50
2018-08-16T00:42:33.502Z,74.30
2018-08-16T00:45:02.182Z,75.30
2018-08-16T00:47:30.787Z,74.70
2018-08-16T00:49:58.881Z,74.70
2018-08-16T00:52:26.991Z,74.80
2018-08-16T00:54:55.102Z,75.00
2018-08-16T00:57:23.186Z,75.00
2018-08-16T00:59:51.289Z,75.10
2018-08-16T01:02:19.362Z,75.10
2018-08-16T01:04:47.472Z,75.20
2018-08-16T01:07:15.577Z,76.30
2018-08-16T01:09:43.749Z,75.30
2018-08-16T01:12:11.870Z,75.40
2018-08-16T01:14:40.009Z,75.60
2018-08-16T01:17:08.404Z,75.40
2018-08-16T01:19:36.519Z,75.70
2018-08-16T01:22:04.621Z,75.70
2018-08-16T01:24:32.738Z,75.90
2018-08-16T01:27:00.850Z,75.80
2018-08-16T01:29:28.965Z,75.90
2018-08-16T01:31:57.089Z,76.00
2018-08-16T01:34:25.203Z,76.10
2018-08-16T01:36:53.330Z,76.10
2018-08-16T01:39:21.435Z,76.30
2018-08-16T01:41:49.526Z,76.20
2018-08-16T01:44:17.631Z,76.40
2018-08-16T01:46:45.753Z,76.40
2018-08-16T01:49:27.778Z,76.70
2018-08-16T01:51:56.159Z,76.90
2018-08-16T01:54:24.396Z,76.70
2018-08-16T01:56:52.698Z,76.80
2018-08-16T01:59:21.080Z,76.90
2018-08-16T02:01:49.612Z,77.00
2018-08-16T02:04:17.847Z,77.10
2018-08-16T02:06:46.106Z,77.10
2018-08-16T02:09:14.191Z,77.20
2018-08-16T02:11:42.285Z,77.30
2018-08-16T02:14:10.440Z,77.40
2018-08-16T02:16:39.105Z,77.60
2018-08-16T02:19:07.211Z,77.60
2018-08-16T02:21:35.771Z,77.70
2018-08-16T02:24:04.158Z,80.50
2018-08-16T02:26:32.446Z,79.50
2018-08-16T02:29:00.715Z,79.20
2018-08-16T02:31:28.792Z,78.80
2018-08-16T02:33:56.963Z,78.80
2018-08-16T02:36:25.566Z,78.60
2018-08-16T02:38:53.687Z,78.60
2018-08-16T02:41:21.819Z,78.50
2018-08-16T02:43:49.963Z,78.40
2018-08-16T02:46:18.240Z,78.50
2018-08-16T02:48:46.380Z,78.50
2018-08-16T02:51:14.693Z,78.60
2018-08-16T02:53:42.787Z,78.60
2018-08-16T02:56:10.922Z,78.40
2018-08-16T02:58:39.006Z,78.70
2018-08-16T03:01:07.103Z,78.80
2018-08-16T03:03:35.216Z,78.80
2018-08-16T03:06:03.361Z,78.90
2018-08-16T03:08:31.407Z,78.90
2018-08-16T03:10:59.524Z,78.90
2018-08-16T03:13:27.658Z,80.50
2018-08-16T03:15:55.800Z,80.20
2018-08-16T03:18:23.943Z,79.90
2018-08-16T03:20:52.046Z,79.90
2018-08-16T03:23:20.171Z,79.70
2018-08-16T03:25:48.290Z,79.60
2018-08-16T03:28:16.407Z,79.50
2018-08-16T03:30:44.534Z,79.60
2018-08-16T03:33:12.631Z,79.60
2018-08-16T03:35:40.888Z,79.60
2018-08-16T03:38:09.053Z,79.60
2018-08-16T03:40:37.098Z,79.60
2018-08-16T03:43:05.202Z,79.70
2018-08-16T03:45:33.303Z,79.60
2018-08-16T03:48:01.495Z,79.70
2018-08-16T03:50:29.542Z,79.80
2018-08-16T03:52:57.646Z,79.90
2018-08-16T03:55:25.742Z,79.70
2018-08-16T03:57:53.840Z,80.00
2018-08-16T04:00:21.985Z,79.90
2018-08-16T04:02:50.082Z,80.60
2018-08-16T04:05:18.234Z,80.60
2018-08-16T04:07:46.347Z,80.60
2018-08-16T04:10:14.435Z,80.50
2018-08-16T04:12:42.571Z,80.60
2018-08-16T04:15:10.723Z,80.70
2018-08-16T04:17:38.894Z,80.80
2018-08-16T04:20:07.173Z,80.80
2018-08-16T04:22:35.888Z,80.80
2018-08-16T04:25:04.666Z,80.70
2018-08-16T04:27:32.821Z,80.80
2018-08-16T04:30:00.995Z,80.80
2018-08-16T04:32:29.107Z,80.80
2018-08-16T04:34:57.260Z,80.90
2018-08-16T04:37:25.339Z,80.80
2018-08-16T04:39:53.440Z,81.00
2018-08-16T04:42:21.602Z,81.10
2018-08-16T04:44:49.727Z,81.50
2018-08-16T04:47:17.818Z,81.30
2018-08-16T04:49:45.914Z,81.30
2018-08-16T04:52:14.015Z,82.40
2018-08-16T04:54:42.122Z,82.30
2018-08-16T04:57:10.201Z,82.20
2018-08-16T04:59:38.315Z,82.20
2018-08-16T05:02:06.574Z,81.90
2018-08-16T05:04:34.680Z,81.90
2018-08-16T05:07:02.813Z,82.00
2018-08-16T05:09:30.911Z,82.20
2018-08-16T05:12:05.314Z,82.10
2018-08-16T05:14:33.455Z,82.30
2018-08-16T05:17:01.645Z,82.40
2018-08-16T05:19:29.783Z,82.10
2018-08-16T05:21:58.028Z,82.60
2018-08-16T05:24:26.150Z,82.50
2018-08-16T05:26:54.259Z,85.60
2018-08-16T05:29:22.347Z,83.00
2018-08-16T05:31:50.455Z,83.00
2018-08-16T05:34:18.575Z,83.20
2018-08-16T05:36:46.730Z,83.20
2018-08-16T05:39:14.835Z,83.10
2018-08-16T05:41:43.048Z,83.10
2018-08-16T05:44:11.156Z,83.40
2018-08-16T05:46:39.243Z,83.40
2018-08-16T05:49:07.328Z,83.60
2018-08-16T05:51:35.382Z,83.70
2018-08-16T05:54:03.473Z,83.70
2018-08-16T05:56:31.549Z,83.80
2018-08-16T05:58:59.621Z,84.10
2018-08-16T06:01:27.744Z,84.10
2018-08-16T06:03:55.843Z,84.00
2018-08-16T06:06:23.950Z,84.10
2018-08-16T06:08:52.059Z,84.10
2018-08-16T06:11:20.172Z,84.60
2018-08-16T06:13:48.287Z,84.60
2018-08-16T06:16:16.398Z,85.60
2018-08-16T06:18:44.579Z,85.40
2018-08-16T06:21:12.725Z,85.00
2018-08-16T06:23:40.819Z,85.00
2018-08-16T06:26:08.939Z,84.70
2018-08-16T06:28:37.043Z,84.50
2018-08-16T06:31:05.187Z,84.70
2018-08-16T06:33:33.313Z,84.30
2018-08-16T06:36:01.468Z,83.70
2018-08-16T06:38:29.575Z,83.70
2018-08-16T06:40:57.695Z,83.80
2018-08-16T06:43:25.799Z,83.60
2018-08-16T06:45:53.983Z,83.50
2018-08-16T06:48:22.127Z,83.60
2018-08-16T06:50:50.244Z,83.30
2018-08-16T06:53:18.388Z,83.00
2018-08-16T06:55:46.478Z,83.00
2018-08-16T06:58:14.633Z,82.70
2018-08-16T07:00:42.775Z,82.80
2018-08-16T07:03:11.007Z,82.70
2018-08-16T07:05:39.462Z,82.40
2018-08-16T07:08:07.691Z,82.20
2018-08-16T07:10:35.798Z,81.80
2018-08-16T07:13:03.995Z,81.70
2018-08-16T07:15:32.108Z,81.30
2018-08-16T07:18:00.255Z,81.00
2018-08-16T07:20:28.383Z,80.70
2018-08-16T07:22:56.507Z,80.50
2018-08-16T07:25:24.702Z,80.00
2018-08-16T07:27:53.161Z,79.50
2018-08-16T07:30:21.283Z,79.20
2018-08-16T07:32:49.406Z,79.70
2018-08-16T07:35:17.528Z,79.60
2018-08-16T07:37:45.685Z,79.20
2018-08-16T07:40:13.847Z,79.00
2018-08-16T07:42:41.982Z,78.40
2018-08-16T07:45:11.018Z,78.70
2018-08-16T07:47:39.459Z,78.10
2018-08-16T07:50:09.161Z,78.00
2018-08-16T07:52:37.282Z,77.50
2018-08-16T07:55:05.746Z,77.60
2018-08-16T07:57:34.219Z,76.90
2018-08-16T08:00:02.554Z,76.80
2018-08-16T08:02:30.731Z,76.80
2018-08-16T08:04:58.890Z,76.90
2018-08-16T08:07:26.995Z,77.10
2018-08-16T08:09:55.117Z,77.00
2018-08-16T08:12:23.259Z,77.10
2018-08-16T08:14:52.032Z,76.30
2018-08-16T08:17:20.228Z,75.90
2018-08-16T08:19:48.369Z,76.10
2018-08-16T08:22:16.509Z,76.20
2018-08-16T08:24:44.613Z,75.50
2018-08-16T08:27:13.234Z,74.90
2018-08-16T08:29:41.371Z,73.60
2018-08-16T08:32:09.481Z,73.50
2018-08-16T08:34:37.643Z,73.50
2018-08-16T08:37:17.183Z,74.00
2018-08-16T08:39:45.284Z,74.70
2018-08-16T08:42:13.431Z,73.90
2018-08-16T08:44:41.561Z,73.50
2018-08-16T08:47:09.688Z,73.20
2018-08-16T08:49:37.775Z,73.40
2018-08-16T08:52:05.903Z,73.30
2018-08-16T08:54:53.339Z,72.80
2018-08-16T08:57:33.598Z,72.60
2018-08-16T09:00:01.725Z,72.20
2018-08-16T09:02:29.829Z,70.20
2018-08-16T09:04:57.975Z,69.20
2018-08-16T09:07:32.768Z,70.30
2018-08-16T09:11:13.025Z,70.00
2018-08-16T09:13:54.101Z,70.10
2018-08-16T09:16:29.083Z,69.20
2018-08-16T09:18:57.500Z,68.60
2018-08-16T09:21:25.880Z,68.10
2018-08-16T09:23:53.968Z,68.50
2018-08-16T09:26:42.452Z,67.80
2018-08-16T09:30:24.122Z,66.90
2018-08-16T09:33:03.627Z,68.00
2018-08-16T09:35:31.785Z,67.50
2018-08-16T09:37:59.923Z,68.10
2018-08-16T09:40:28.044Z,65.40
2018-08-16T09:42:56.169Z,65.80
2018-08-16T09:45:35.610Z,66.90
2018-08-16T09:48:15.211Z,66.60
2018-08-16T09:50:43.387Z,66.60
2018-08-16T09:53:11.479Z,66.20
2018-08-16T09:55:39.605Z,66.00
2018-08-16T09:58:36.684Z,65.90
2018-08-16T10:01:10.189Z,65.50
2018-08-16T10:03:38.345Z,65.20
2018-08-16T10:06:06.488Z,64.80
2018-08-16T10:08:34.580Z,64.40
2018-08-16T10:11:03.316Z,64.50
2018-08-16T10:13:31.512Z,64.40
2018-08-16T10:15:59.588Z,64.80
2018-08-16T10:18:27.759Z,64.60
2018-08-16T10:20:55.915Z,64.70
2018-08-16T10:23:23.985Z,64.60
2018-08-16T10:25:52.092Z,64.80
2018-08-16T10:28:20.216Z,64.90
2018-08-16T10:30:48.321Z,65.00
2018-08-16T10:33:16.455Z,65.20
2018-08-16T10:35:44.589Z,65.10
2018-08-16T10:38:12.715Z,64.80
2018-08-16T10:40:40.837Z,64.10
2018-08-16T10:43:08.991Z,64.30
2018-08-16T10:45:37.091Z,63.40
2018-08-16T10:48:05.383Z,63.50
2018-08-16T10:50:33.537Z,63.40
2018-08-16T10:53:01.743Z,63.50
2018-08-16T10:55:30.035Z,63.80
2018-08-16T10:57:58.372Z,64.40
2018-08-16T11:00:26.469Z,64.00
2018-08-16T11:02:55.591Z,64.50
2018-08-16T11:05:23.698Z,64.20
2018-08-16T11:07:52.556Z,64.40
2018-08-16T11:10:20.698Z,64.30
2018-08-16T11:12:48.775Z,64.30
2018-08-16T11:15:16.899Z,64.40
2018-08-16T11:17:44.996Z,64.40
2018-08-16T11:20:13.133Z,64.30
2018-08-16T11:22:41.251Z,63.60
2018-08-16T11:25:09.382Z,63.40
2018-08-16T11:27:37.509Z,63.30
2018-08-16T11:30:05.833Z,62.60
2018-08-16T11:32:33.935Z,62.90
2018-08-16T11:35:02.092Z,62.60
2018-08-16T11:37:30.228Z,61.50
2018-08-16T11:39:58.351Z,62.50
2018-08-16T11:42:26.475Z,62.90
2018-08-16T11:44:54.576Z,62.80
2018-08-16T11:47:22.667Z,62.70
2018-08-16T11:49:50.768Z,62.70
2018-08-16T11:52:18.864Z,62.20
2018-08-16T11:54:47.759Z,62.10
2018-08-16T11:57:15.947Z,62.10
2018-08-16T11:59:44.032Z,61.70
2018-08-16T12:02:12.256Z,61.00
2018-08-16T12:04:40.699Z,61.10
2018-08-16T12:07:08.823Z,60.90
2018-08-16T12:09:37.011Z,61.30
2018-08-16T12:12:05.459Z,61.40
2018-08-16T12:14:33.566Z,61.70
2018-08-16T12:17:01.765Z,61.50
2018-08-16T12:19:29.884Z,61.70
2018-08-16T12:21:58.025Z,61.60
2018-08-16T12:24:26.207Z,61.70
2018-08-16T12:26:54.367Z,61.90
2018-08-16T12:29:23.357Z,61.60
2018-08-16T12:31:51.475Z,61.60
2018-08-16T12:34:19.595Z,61.10
2018-08-16T12:36:47.803Z,61.10
2018-08-16T12:39:15.925Z,61.70
2018-08-16T12:41:44.069Z,61.80
2018-08-16T12:44:12.201Z,61.90
2018-08-16T12:46:40.333Z,60.90
2018-08-16T12:49:08.415Z,61.70
2018-08-16T12:51:36.540Z,61.30
2018-08-16T12:54:04.690Z,61.20
2018-08-16T12:56:32.821Z,61.50
2018-08-16T12:59:00.952Z,60.30
2018-08-16T13:01:29.068Z,59.90
2018-08-16T13:03:57.187Z,59.70
2018-08-16T13:06:25.308Z,60.00
2018-08-16T13:08:53.392Z,60.00
2018-08-16T13:11:21.498Z,60.30
2018-08-16T13:13:49.631Z,60.60
2018-08-16T13:16:17.786Z,60.20
2018-08-16T13:18:46.113Z,59.80
2018-08-16T13:21:14.194Z,59.30
2018-08-16T13:23:42.309Z,59.40
2018-08-16T13:26:10.371Z,59.00
2018-08-16T13:28:38.483Z,60.00
2018-08-16T13:31:06.591Z,59.30
2018-08-16T13:33:34.689Z,58.50
2018-08-16T13:36:02.857Z,58.30
2018-08-16T13:38:30.948Z,58.30
2018-08-16T13:40:59.050Z,58.50
2018-08-16T13:43:27.166Z,58.50
2018-08-16T13:45:55.270Z,58.60
2018-08-16T13:48:23.423Z,58.90
2018-08-16T13:50:51.512Z,58.10
2018-08-16T13:53:19.646Z,57.80
2018-08-16T13:55:47.723Z,57.70
2018-08-16T13:58:15.811Z,57.50
2018-08-16T14:00:43.911Z,57.10
2018-08-16T14:03:12.008Z,57.20
2018-08-16T14:05:40.147Z,57.00
2018-08-16T14:08:08.243Z,57.50
2018-08-16T14:10:36.328Z,57.90
2018-08-16T14:13:04.416Z,57.30
2018-08-16T14:15:32.539Z,57.00
2018-08-16T14:18:00.653Z,56.70
2018-08-16T14:20:28.788Z,56.80
2018-08-16T14:22:56.871Z,56.30
2018-08-16T14:25:24.977Z,56.50
2018-08-16T14:27:53.079Z,56.20
2018-08-16T14:30:21.186Z,56.00
2018-08-16T14:32:49.327Z,55.30
2018-08-16T14:35:17.433Z,55.50
2018-08-16T14:37:45.557Z,55.50
2018-08-16T14:40:13.803Z,55.70
2018-08-16T14:42:41.894Z,56.00
2018-08-16T14:45:10.077Z,56.40
2018-08-16T14:47:38.172Z,57.40
2018-08-16T14:50:07.240Z,56.50
2018-08-16T14:52:35.475Z,56.00
2018-08-16T14:55:03.579Z,55.70
2018-08-16T14:57:31.711Z,55.50
2018-08-16T14:59:59.807Z,54.80
2018-08-16T15:02:27.915Z,54.00
2018-08-16T15:04:56.007Z,52.10
2018-08-16T15:07:24.155Z,52.20
2018-08-16T15:09:52.364Z,53.10
2018-08-16T15:12:20.493Z,53.20
2018-08-16T15:14:48.595Z,52.80
2018-08-16T15:17:16.736Z,52.30
2018-08-16T15:19:44.842Z,52.20
2018-08-16T15:22:12.947Z,51.80
2018-08-16T15:24:41.061Z,51.50
2018-08-16T15:27:09.174Z,50.80
2018-08-16T15:29:37.271Z,50.30
2018-08-16T15:32:05.417Z,50.20
2018-08-16T15:34:33.513Z,49.90
2018-08-16T15:37:01.614Z,48.00
2018-08-16T15:39:29.704Z,48.70
2018-08-16T15:41:57.820Z,48.90
2018-08-16T15:44:25.932Z,48.80
2018-08-16T15:46:54.083Z,48.90
2018-08-16T15:49:22.189Z,48.30
2018-08-16T15:51:50.283Z,48.50
2018-08-16T15:54:18.380Z,48.70
2018-08-16T15:56:46.494Z,48.40
2018-08-16T15:59:14.688Z,48.00
2018-08-16T16:01:42.690Z,48.00
2018-08-16T16:04:10.806Z,47.80
2018-08-16T16:06:38.910Z,48.00
2018-08-16T16:09:07.930Z,47.80
2018-08-16T16:11:36.065Z,47.80
2018-08-16T16:14:04.313Z,45.30
2018-08-16T16:16:32.398Z,46.20
2018-08-16T16:19:00.547Z,46.30
2018-08-16T16:21:28.643Z,46.60
2018-08-16T16:23:56.767Z,46.80
2018-08-16T16:26:24.877Z,46.70
2018-08-16T16:28:52.956Z,46.20
2018-08-16T16:31:21.139Z,46.00
2018-08-16T16:33:49.311Z,46.00
2018-08-16T16:36:17.459Z,46.00
2018-08-16T16:38:45.578Z,45.90
2018-08-16T16:41:13.713Z,46.00
2018-08-16T16:43:41.826Z,46.00
2018-08-16T16:46:09.968Z,45.50
2018-08-16T16:48:38.095Z,46.00
2018-08-16T16:51:06.309Z,46.70
2018-08-16T16:53:34.410Z,46.50
2018-08-16T16:56:02.499Z,46.70
2018-08-16T16:58:30.606Z,46.90
2018-08-16T17:00:58.720Z,47.40
2018-08-16T17:03:26.860Z,47.70
2018-08-16T17:05:54.950Z,48.00
2018-08-16T17:08:23.074Z,48.30
2018-08-16T17:10:51.227Z,48.60
2018-08-16T17:13:19.675Z,48.90
2018-08-16T17:15:47.785Z,49.20
2018-08-16T17:18:15.876Z,49.40
2018-08-16T17:20:43.983Z,49.90
2018-08-16T17:23:12.119Z,50.30
2018-08-16T17:25:40.224Z,50.40
2018-08-16T17:28:08.320Z,50.40
2018-08-16T17:30:36.417Z,50.60
2018-08-16T17:33:04.560Z,50.90
2018-08-16T17:35:32.739Z,51.20
2018-08-16T17:38:00.816Z,52.00
2018-08-16T17:40:28.911Z,52.50
2018-08-16T17:42:57.037Z,52.70
2018-08-16T17:45:25.136Z,53.20
2018-08-16T17:47:53.264Z,53.40
2018-08-16T17:50:21.373Z,54.80
2018-08-16T17:52:49.472Z,55.30
2018-08-16T17:55:17.851Z,55.40
2018-08-16T17:57:45.996Z,55.50
2018-08-16T18:00:14.071Z,56.30
2018-08-16T18:02:42.355Z,55.70
2018-08-16T18:05:10.507Z,56.00
2018-08-16T18:07:38.776Z,56.80
2018-08-16T18:10:07.796Z,56.50
2018-08-16T18:12:36.972Z,56.90
2018-08-16T18:15:06.794Z,57.30
2018-08-16T18:17:35.041Z,57.20
2018-08-16T18:20:05.744Z,57.90
2018-08-16T18:22:33.992Z,57.90
2018-08-16T18:25:02.075Z,57.90
2018-08-16T18:27:30.221Z,58.10
2018-08-16T18:29:58.415Z,59.00
2018-08-16T18:32:26.499Z,58.50
2018-08-16T18:34:54.623Z,58.30
2018-08-16T18:37:22.761Z,58.50
2018-08-16T18:39:50.841Z,58.70
2018-08-16T18:42:18.945Z,58.90
2018-08-16T18:44:47.033Z,59.00
2018-08-16T18:47:15.157Z,59.10
2018-08-16T18:49:43.279Z,59.20
2018-08-16T18:52:11.391Z,60.50
2018-08-16T18:54:39.505Z,60.60
2018-08-16T18:57:07.602Z,60.50
2018-08-16T18:59:35.870Z,60.40
2018-08-16T19:02:03.887Z,60.40
2018-08-16T19:04:31.994Z,60.70
2018-08-16T19:07:00.112Z,60.70
2018-08-16T19:09:28.234Z,60.70
2018-08-16T19:11:56.479Z,60.80
2018-08-16T19:14:24.702Z,60.90
2018-08-16T19:16:52.807Z,61.00
2018-08-16T19:19:20.929Z,61.20
2018-08-16T19:21:49.011Z,61.80
2018-08-16T19:24:17.102Z,61.90
2018-08-16T19:26:45.216Z,62.00
2018-08-16T19:29:13.325Z,62.20
2018-08-16T19:31:41.415Z,62.40
2018-08-16T19:34:09.491Z,62.40
2018-08-16T19:36:37.640Z,62.80
2018-08-16T19:39:08.544Z,62.90
2018-08-16T19:41:36.669Z,62.80
2018-08-16T19:44:04.882Z,62.90
2018-08-16T19:46:32.967Z,62.80
2018-08-16T19:49:01.075Z,63.30
2018-08-16T19:51:29.170Z,63.50
2018-08-16T19:53:57.266Z,64.80
2018-08-16T19:56:25.409Z,64.60
2018-08-16T19:58:53.511Z,64.60
2018-08-16T20:01:21.879Z,64.50
2018-08-16T20:03:49.807Z,64.20
2018-08-16T20:06:18.006Z,64.50
2018-08-16T20:08:46.135Z,64.60
2018-08-16T20:11:14.287Z,64.50
2018-08-16T20:13:42.439Z,64.60
2018-08-16T20:16:10.703Z,64.60
2018-08-16T20:18:38.843Z,64.50
2018-08-16T20:21:07.143Z,64.60
2018-08-16T20:23:35.251Z,64.60
2018-08-16T20:26:03.342Z,64.70
2018-08-16T20:28:31.443Z,64.80
2018-08-16T20:30:59.548Z,64.70
2018-08-16T20:33:27.641Z,64.80
2018-08-16T20:35:55.781Z,65.00
2018-08-16T20:38:23.894Z,64.70
2018-08-16T20:40:52.059Z,65.70
2018-08-16T20:43:20.170Z,65.10
2018-08-16T20:45:48.265Z,65.20
2018-08-16T20:48:16.391Z,65.30
2018-08-16T20:50:44.513Z,65.40
2018-08-16T20:53:12.660Z,65.40
2018-08-16T20:55:40.877Z,65.50
2018-08-16T20:58:08.968Z,65.30
2018-08-16T21:00:37.112Z,65.60
2018-08-16T21:03:05.264Z,65.60
2018-08-16T21:05:35.087Z,65.50
2018-08-16T21:08:04.101Z,65.40
2018-08-16T21:10:33.809Z,66.10
2018-08-16T21:13:02.867Z,66.00
2018-08-16T21:15:33.709Z,65.60
2018-08-16T21:18:02.412Z,66.30
2018-08-16T21:20:31.971Z,66.40
2018-08-16T21:23:00.223Z,66.40
2018-08-16T21:25:28.433Z,66.90
2018-08-16T21:27:56.877Z,66.20
2018-08-16T21:30:25.100Z,66.70
2018-08-16T21:32:53.352Z,66.80
2018-08-16T21:35:21.518Z,68.10
2018-08-16T21:37:49.819Z,67.50
2018-08-16T21:40:18.008Z,67.70
2018-08-16T21:42:46.255Z,67.50
2018-08-16T21:45:14.495Z,67.40
2018-08-16T21:47:42.726Z,67.30
2018-08-16T21:50:10.866Z,67.30
2018-08-16T21:52:38.987Z,67.30
2018-08-16T21:55:07.113Z,67.40
2018-08-16T21:57:35.463Z,67.60
2018-08-16T22:00:04.844Z,67.60
2018-08-16T22:02:34.887Z,67.70
2018-08-16T22:05:04.909Z,69.20
2018-08-16T22:08:08.112Z,69.40
2018-08-16T22:10:36.562Z,68.90
2018-08-16T22:13:05.320Z,68.30
2018-08-16T22:15:33.859Z,68.70
2018-08-16T22:18:02.456Z,68.20
2018-08-16T22:20:30.478Z,68.40
2018-08-16T22:22:58.598Z,68.90
2018-08-16T22:25:26.709Z,68.90
2018-08-16T22:27:54.849Z,68.70
2018-08-16T22:30:22.939Z,69.10
2018-08-16T22:32:51.040Z,69.30
2018-08-16T22:35:19.139Z,69.20
2018-08-16T22:37:47.256Z,70.50
2018-08-16T22:40:15.562Z,70.40
2018-08-16T22:42:43.692Z,70.20
2018-08-16T22:45:12.228Z,70.10
2018-08-16T22:47:40.341Z,69.90
2018-08-16T22:50:08.690Z,70.80
2018-08-16T22:52:37.253Z,69.90
2018-08-16T22:55:05.914Z,69.90
2018-08-16T22:57:34.071Z,70.00
2018-08-16T23:00:02.172Z,69.80
2018-08-16T23:02:30.314Z,69.90
2018-08-16T23:04:58.424Z,69.90
2018-08-16T23:07:26.546Z,70.00
2018-08-16T23:09:54.641Z,69.80
2018-08-16T23:12:22.735Z,70.00
2018-08-16T23:14:50.875Z,70.10
2018-08-16T23:17:19.041Z,70.10
2018-08-16T23:19:47.167Z,70.60
2018-08-16T23:22:15.296Z,71.10
2018-08-16T23:24:43.511Z,71.50
2018-08-16T23:27:11.645Z,71.80
2018-08-16T23:29:39.752Z,71.90
2018-08-16T23:32:08.027Z,73.00
2018-08-16T23:34:36.414Z,73.40
2018-08-16T23:37:04.712Z,74.20
2018-08-16T23:39:32.839Z,73.80
2018-08-16T23:42:00.938Z,74.20
2018-08-16T23:44:29.066Z,74.60
2018-08-16T23:46:57.147Z,74.80
2018-08-16T23:49:25.292Z,75.60
2018-08-16T23:51:53.503Z,76.40
2018-08-16T23:54:21.602Z,75.80
2018-08-16T23:56:49.726Z,76.40
2018-08-16T23:59:17.918Z,76.70
